sensor_id;sensor_type;location;lat;lon;timestamp;temperature;humidity
11836;DHT22;5977;51.972;7.640;2022-08-19T00:01:39;22.70;99.90
11836;DHT22;5977;51.972;7.640;2022-08-19T00:04:10;22.50;99.90
11836;DHT22;5977;51.972;7.640;2022-08-19T00:06:41;22.20;99.90
11836;DHT22;5977;51.972;7.640;2022-08-19T00:09:12;22.10;99.90
11836;DHT22;5977;51.972;7.640;2022-08-19T00:11:41;21.70;99.90
11836;DHT22;5977;51.972;7.640;2022-08-19T00:14:11;21.90;99.90
11836;DHT22;5977;51.972;7.640;2022-08-19T00:16:41;21.80;99.90
11836;DHT22;5977;51.972;7.640;2022-08-19T00:19:09;21.60;99.90
11836;DHT22;5977;51.972;7.640;2022-08-19T00:21:39;21.60;99.90
11836;DHT22;5977;51.972;7.640;2022-08-19T00:24:07;21.80;99.90
11836;DHT22;5977;51.972;7.640;2022-08-19T00:26:36;21.90;99.90
11836;DHT22;5977;51.972;7.640;2022-08-19T00:29:06;21.80;99.90
11836;DHT22;5977;51.972;7.640;2022-08-19T00:31:35;21.50;99.90
11836;DHT22;5977;51.972;7.640;2022-08-19T00:34:03;21.60;99.90
11836;DHT22;5977;51.972;7.640;2022-08-19T00:36:31;21.70;99.90
11836;DHT22;5977;51.972;7.640;2022-08-19T00:39:01;21.80;99.90
11836;DHT22;5977;51.972;7.640;2022-08-19T00:41:29;21.80;99.90
11836;DHT22;5977;51.972;7.640;2022-08-19T00:44:00;21.90;99.90
11836;DHT22;5977;51.972;7.640;2022-08-19T00:46:28;21.80;99.90
11836;DHT22;5977;51.972;7.640;2022-08-19T00:48:56;21.40;99.90
11836;DHT22;5977;51.972;7.640;2022-08-19T00:51:25;21.40;99.90
11836;DHT22;5977;51.972;7.640;2022-08-19T00:53:55;21.50;99.90
11836;DHT22;5977;51.972;7.640;2022-08-19T00:56:25;21.70;99.90
11836;DHT22;5977;51.972;7.640;2022-08-19T00:58:55;21.70;99.90
11836;DHT22;5977;51.972;7.640;2022-08-19T01:01:24;21.60;99.90
11836;DHT22;5977;51.972;7.640;2022-08-19T01:03:52;21.70;99.90
11836;DHT22;5977;51.972;7.640;2022-08-19T01:06:25;21.60;99.90
11836;DHT22;5977;51.972;7.640;2022-08-19T01:08:54;21.70;99.90
11836;DHT22;5977;51.972;7.640;2022-08-19T01:11:22;21.70;99.90
11836;DHT22;5977;51.972;7.640;2022-08-19T01:13:52;21.40;99.90
11836;DHT22;5977;51.972;7.640;2022-08-19T01:16:24;21.20;99.90
11836;DHT22;5977;51.972;7.640;2022-08-19T01:18:52;21.10;99.90
11836;DHT22;5977;51.972;7.640;2022-08-19T01:21:26;21.40;99.90
11836;DHT22;5977;51.972;7.640;2022-08-19T01:23:57;21.60;99.90
11836;DHT22;5977;51.972;7.640;2022-08-19T01:26:28;21.60;99.90
11836;DHT22;5977;51.972;7.640;2022-08-19T01:28:59;21.70;99.90
11836;DHT22;5977;51.972;7.640;2022-08-19T01:31:28;21.70;99.90
11836;DHT22;5977;51.972;7.640;2022-08-19T01:33:59;21.50;99.90
11836;DHT22;5977;51.972;7.640;2022-08-19T01:36:30;21.20;99.90
11836;DHT22;5977;51.972;7.640;2022-08-19T01:39:02;21.30;99.90
11836;DHT22;5977;51.972;7.640;2022-08-19T01:41:30;21.40;99.90
11836;DHT22;5977;51.972;7.640;2022-08-19T01:43:59;21.30;99.90
11836;DHT22;5977;51.972;7.640;2022-08-19T01:46:44;21.40;99.90
11836;DHT22;5977;51.972;7.640;2022-08-19T01:49:12;21.30;99.90
11836;DHT22;5977;51.972;7.640;2022-08-19T01:51:40;21.00;99.90
11836;DHT22;5977;51.972;7.640;2022-08-19T01:54:11;21.20;99.90
11836;DHT22;5977;51.972;7.640;2022-08-19T01:56:49;21.20;99.90
11836;DHT22;5977;51.972;7.640;2022-08-19T01:59:19;21.20;99.90
11836;DHT22;5977;51.972;7.640;2022-08-19T02:01:48;21.30;99.90
11836;DHT22;5977;51.972;7.640;2022-08-19T02:04:16;21.50;99.90
11836;DHT22;5977;51.972;7.640;2022-08-19T02:06:44;21.40;99.90
11836;DHT22;5977;51.972;7.640;2022-08-19T02:09:13;21.40;99.90
11836;DHT22;5977;51.972;7.640;2022-08-19T02:11:41;21.20;99.90
11836;DHT22;5977;51.972;7.640;2022-08-19T02:14:09;21.10;99.90
11836;DHT22;5977;51.972;7.640;2022-08-19T02:16:37;21.20;99.90
11836;DHT22;5977;51.972;7.640;2022-08-19T02:19:06;21.20;99.90
11836;DHT22;5977;51.972;7.640;2022-08-19T02:21:34;21.10;99.90
11836;DHT22;5977;51.972;7.640;2022-08-19T02:24:03;21.00;99.90
11836;DHT22;5977;51.972;7.640;2022-08-19T02:26:33;20.90;99.90
11836;DHT22;5977;51.972;7.640;2022-08-19T02:29:01;20.50;99.90
11836;DHT22;5977;51.972;7.640;2022-08-19T02:31:29;20.60;99.90
11836;DHT22;5977;51.972;7.640;2022-08-19T02:33:57;20.40;99.90
11836;DHT22;5977;51.972;7.640;2022-08-19T02:36:25;20.50;99.90
11836;DHT22;5977;51.972;7.640;2022-08-19T02:38:55;20.40;99.90
11836;DHT22;5977;51.972;7.640;2022-08-19T02:41:26;20.50;99.90
11836;DHT22;5977;51.972;7.640;2022-08-19T02:44:20;20.50;99.90
11836;DHT22;5977;51.972;7.640;2022-08-19T02:46:57;20.60;99.90
11836;DHT22;5977;51.972;7.640;2022-08-19T02:49:25;20.80;99.90
11836;DHT22;5977;51.972;7.640;2022-08-19T02:51:53;20.80;99.90
11836;DHT22;5977;51.972;7.640;2022-08-19T02:54:20;21.00;99.90
11836;DHT22;5977;51.972;7.640;2022-08-19T02:56:48;21.00;99.90
11836;DHT22;5977;51.972;7.640;2022-08-19T02:59:16;21.00;99.90
11836;DHT22;5977;51.972;7.640;2022-08-19T03:01:50;20.50;99.90
11836;DHT22;5977;51.972;7.640;2022-08-19T03:04:19;20.50;99.90
11836;DHT22;5977;51.972;7.640;2022-08-19T03:06:47;20.70;99.90
11836;DHT22;5977;51.972;7.640;2022-08-19T03:09:15;20.40;99.90
11836;DHT22;5977;51.972;7.640;2022-08-19T03:11:44;20.50;99.90
11836;DHT22;5977;51.972;7.640;2022-08-19T03:14:14;20.50;99.90
11836;DHT22;5977;51.972;7.640;2022-08-19T03:16:43;20.70;99.90
11836;DHT22;5977;51.972;7.640;2022-08-19T03:19:15;20.90;99.90
11836;DHT22;5977;51.972;7.640;2022-08-19T03:21:43;21.00;99.90
11836;DHT22;5977;51.972;7.640;2022-08-19T03:24:13;20.90;99.90
11836;DHT22;5977;51.972;7.640;2022-08-19T03:26:43;20.80;99.90
11836;DHT22;5977;51.972;7.640;2022-08-19T03:29:12;20.70;99.90
11836;DHT22;5977;51.972;7.640;2022-08-19T03:31:50;20.50;99.90
11836;DHT22;5977;51.972;7.640;2022-08-19T03:34:23;20.70;99.90
11836;DHT22;5977;51.972;7.640;2022-08-19T03:36:54;20.60;99.90
11836;DHT22;5977;51.972;7.640;2022-08-19T03:39:23;20.70;99.90
11836;DHT22;5977;51.972;7.640;2022-08-19T03:41:52;20.90;99.90
11836;DHT22;5977;51.972;7.640;2022-08-19T03:44:43;20.60;99.90
11836;DHT22;5977;51.972;7.640;2022-08-19T03:47:12;20.60;99.90
11836;DHT22;5977;51.972;7.640;2022-08-19T03:49:44;20.70;99.90
11836;DHT22;5977;51.972;7.640;2022-08-19T03:52:12;20.70;99.90
11836;DHT22;5977;51.972;7.640;2022-08-19T03:54:41;20.90;99.90
11836;DHT22;5977;51.972;7.640;2022-08-19T03:57:09;20.90;99.90
11836;DHT22;5977;51.972;7.640;2022-08-19T03:59:38;20.90;99.90
11836;DHT22;5977;51.972;7.640;2022-08-19T04:02:09;21.00;99.90
11836;DHT22;5977;51.972;7.640;2022-08-19T04:04:38;21.20;99.90
11836;DHT22;5977;51.972;7.640;2022-08-19T04:07:09;20.80;99.90
11836;DHT22;5977;51.972;7.640;2022-08-19T04:09:37;20.50;99.90
11836;DHT22;5977;51.972;7.640;2022-08-19T04:12:06;20.40;99.90
11836;DHT22;5977;51.972;7.640;2022-08-19T04:14:34;20.70;99.90
11836;DHT22;5977;51.972;7.640;2022-08-19T04:17:03;20.70;99.90
11836;DHT22;5977;51.972;7.640;2022-08-19T04:19:33;20.40;99.90
11836;DHT22;5977;51.972;7.640;2022-08-19T04:22:01;20.20;99.90
11836;DHT22;5977;51.972;7.640;2022-08-19T04:24:31;20.50;99.90
11836;DHT22;5977;51.972;7.640;2022-08-19T04:26:59;20.90;99.90
11836;DHT22;5977;51.972;7.640;2022-08-19T04:29:27;21.00;99.90
11836;DHT22;5977;51.972;7.640;2022-08-19T04:31:57;21.10;99.90
11836;DHT22;5977;51.972;7.640;2022-08-19T04:34:27;21.10;99.90
11836;DHT22;5977;51.972;7.640;2022-08-19T04:36:58;21.10;99.90
11836;DHT22;5977;51.972;7.640;2022-08-19T04:39:27;20.80;99.90
11836;DHT22;5977;51.972;7.640;2022-08-19T04:42:18;21.00;99.90
11836;DHT22;5977;51.972;7.640;2022-08-19T04:45:03;21.10;99.90
11836;DHT22;5977;51.972;7.640;2022-08-19T04:47:35;21.00;99.90
11836;DHT22;5977;51.972;7.640;2022-08-19T04:50:23;20.60;99.90
11836;DHT22;5977;51.972;7.640;2022-08-19T04:52:51;20.50;99.90
11836;DHT22;5977;51.972;7.640;2022-08-19T04:55:20;20.40;99.90
11836;DHT22;5977;51.972;7.640;2022-08-19T04:57:49;20.50;99.90
11836;DHT22;5977;51.972;7.640;2022-08-19T05:00:17;20.50;99.90
11836;DHT22;5977;51.972;7.640;2022-08-19T05:02:45;20.30;99.90
11836;DHT22;5977;51.972;7.640;2022-08-19T05:05:15;20.10;99.90
11836;DHT22;5977;51.972;7.640;2022-08-19T05:07:43;20.00;99.90
11836;DHT22;5977;51.972;7.640;2022-08-19T05:10:12;20.20;99.90
11836;DHT22;5977;51.972;7.640;2022-08-19T05:12:39;20.10;99.90
11836;DHT22;5977;51.972;7.640;2022-08-19T05:15:09;20.10;99.90
11836;DHT22;5977;51.972;7.640;2022-08-19T05:17:37;20.20;99.90
11836;DHT22;5977;51.972;7.640;2022-08-19T05:20:25;20.10;99.90
11836;DHT22;5977;51.972;7.640;2022-08-19T05:23:11;20.20;99.90
11836;DHT22;5977;51.972;7.640;2022-08-19T05:25:48;21.00;99.90
11836;DHT22;5977;51.972;7.640;2022-08-19T05:28:18;20.80;99.90
11836;DHT22;5977;51.972;7.640;2022-08-19T05:30:47;20.70;99.90
11836;DHT22;5977;51.972;7.640;2022-08-19T05:33:17;20.60;99.90
11836;DHT22;5977;51.972;7.640;2022-08-19T05:35:45;20.70;99.90
11836;DHT22;5977;51.972;7.640;2022-08-19T05:38:15;20.70;99.90
11836;DHT22;5977;51.972;7.640;2022-08-19T05:40:43;20.90;99.90
11836;DHT22;5977;51.972;7.640;2022-08-19T05:43:13;20.90;99.90
11836;DHT22;5977;51.972;7.640;2022-08-19T05:45:42;20.90;99.90
11836;DHT22;5977;51.972;7.640;2022-08-19T05:48:13;21.10;99.90
11836;DHT22;5977;51.972;7.640;2022-08-19T05:50:41;21.40;99.90
11836;DHT22;5977;51.972;7.640;2022-08-19T05:53:09;21.30;99.90
11836;DHT22;5977;51.972;7.640;2022-08-19T05:55:37;21.40;99.90
11836;DHT22;5977;51.972;7.640;2022-08-19T05:58:06;21.60;99.90
11836;DHT22;5977;51.972;7.640;2022-08-19T06:00:35;21.60;99.90
11836;DHT22;5977;51.972;7.640;2022-08-19T06:03:03;21.70;99.90
11836;DHT22;5977;51.972;7.640;2022-08-19T06:05:40;21.60;99.90
11836;DHT22;5977;51.972;7.640;2022-08-19T06:08:18;21.70;99.90
11836;DHT22;5977;51.972;7.640;2022-08-19T06:11:12;21.70;99.90
11836;DHT22;5977;51.972;7.640;2022-08-19T06:13:40;21.80;99.90
11836;DHT22;5977;51.972;7.640;2022-08-19T06:16:08;21.90;99.90
11836;DHT22;5977;51.972;7.640;2022-08-19T06:18:36;22.10;99.90
11836;DHT22;5977;51.972;7.640;2022-08-19T06:21:05;22.30;99.90
11836;DHT22;5977;51.972;7.640;2022-08-19T06:23:33;22.50;99.90
11836;DHT22;5977;51.972;7.640;2022-08-19T06:26:02;22.50;99.90
11836;DHT22;5977;51.972;7.640;2022-08-19T06:28:29;22.30;99.90
11836;DHT22;5977;51.972;7.640;2022-08-19T06:31:04;22.40;99.90
11836;DHT22;5977;51.972;7.640;2022-08-19T06:33:32;22.40;99.90
11836;DHT22;5977;51.972;7.640;2022-08-19T06:36:01;22.60;99.90
11836;DHT22;5977;51.972;7.640;2022-08-19T06:38:31;22.30;99.90
11836;DHT22;5977;51.972;7.640;2022-08-19T06:41:01;22.50;99.90
11836;DHT22;5977;51.972;7.640;2022-08-19T06:43:33;22.70;99.90
11836;DHT22;5977;51.972;7.640;2022-08-19T06:46:10;22.70;99.90
11836;DHT22;5977;51.972;7.640;2022-08-19T06:48:40;22.90;99.90
11836;DHT22;5977;51.972;7.640;2022-08-19T06:51:12;22.90;99.90
11836;DHT22;5977;51.972;7.640;2022-08-19T06:53:46;22.70;99.90
11836;DHT22;5977;51.972;7.640;2022-08-19T06:56:21;22.60;99.90
11836;DHT22;5977;51.972;7.640;2022-08-19T06:58:51;22.70;99.90
11836;DHT22;5977;51.972;7.640;2022-08-19T07:01:19;23.00;99.90
11836;DHT22;5977;51.972;7.640;2022-08-19T07:03:47;23.40;99.90
11836;DHT22;5977;51.972;7.640;2022-08-19T07:06:17;23.40;99.90
11836;DHT22;5977;51.972;7.640;2022-08-19T07:09:09;23.70;99.90
11836;DHT22;5977;51.972;7.640;2022-08-19T07:11:38;23.90;99.90
11836;DHT22;5977;51.972;7.640;2022-08-19T07:14:05;23.70;99.90
11836;DHT22;5977;51.972;7.640;2022-08-19T07:16:46;23.90;99.90
11836;DHT22;5977;51.972;7.640;2022-08-19T07:19:14;24.20;98.70
11836;DHT22;5977;51.972;7.640;2022-08-19T07:21:48;24.30;97.90
11836;DHT22;5977;51.972;7.640;2022-08-19T07:24:21;24.20;98.00
11836;DHT22;5977;51.972;7.640;2022-08-19T07:26:51;24.20;98.20
11836;DHT22;5977;51.972;7.640;2022-08-19T07:29:21;23.80;99.60
11836;DHT22;5977;51.972;7.640;2022-08-19T07:31:54;23.70;99.90
11836;DHT22;5977;51.972;7.640;2022-08-19T07:34:27;23.70;99.90
11836;DHT22;5977;51.972;7.640;2022-08-19T07:36:56;23.80;99.90
11836;DHT22;5977;51.972;7.640;2022-08-19T07:39:27;24.00;99.90
11836;DHT22;5977;51.972;7.640;2022-08-19T07:41:57;24.10;99.70
11836;DHT22;5977;51.972;7.640;2022-08-19T07:44:25;24.10;99.10
11836;DHT22;5977;51.972;7.640;2022-08-19T07:46:55;24.10;99.00
11836;DHT22;5977;51.972;7.640;2022-08-19T07:49:24;24.10;99.70
11836;DHT22;5977;51.972;7.640;2022-08-19T07:51:53;24.10;99.00
11836;DHT22;5977;51.972;7.640;2022-08-19T07:54:25;24.20;98.60
11836;DHT22;5977;51.972;7.640;2022-08-19T07:56:54;24.50;98.00
11836;DHT22;5977;51.972;7.640;2022-08-19T07:59:24;24.90;96.20
11836;DHT22;5977;51.972;7.640;2022-08-19T08:01:52;25.40;93.60
11836;DHT22;5977;51.972;7.640;2022-08-19T08:04:20;25.60;91.80
11836;DHT22;5977;51.972;7.640;2022-08-19T08:07:06;25.50;91.80
11836;DHT22;5977;51.972;7.640;2022-08-19T08:09:59;25.60;91.30
11836;DHT22;5977;51.972;7.640;2022-08-19T08:12:32;25.90;90.20
11836;DHT22;5977;51.972;7.640;2022-08-19T08:15:05;25.90;89.90
11836;DHT22;5977;51.972;7.640;2022-08-19T08:17:38;25.90;88.70
11836;DHT22;5977;51.972;7.640;2022-08-19T08:20:18;25.90;88.30
11836;DHT22;5977;51.972;7.640;2022-08-19T08:22:46;25.70;88.50
11836;DHT22;5977;51.972;7.640;2022-08-19T08:25:34;25.90;88.10
11836;DHT22;5977;51.972;7.640;2022-08-19T08:28:03;26.10;87.20
11836;DHT22;5977;51.972;7.640;2022-08-19T08:30:32;26.10;86.20
11836;DHT22;5977;51.972;7.640;2022-08-19T08:33:03;26.20;85.60
11836;DHT22;5977;51.972;7.640;2022-08-19T08:35:31;26.20;86.70
11836;DHT22;5977;51.972;7.640;2022-08-19T08:38:00;26.30;86.00
11836;DHT22;5977;51.972;7.640;2022-08-19T08:40:39;26.20;85.00
11836;DHT22;5977;51.972;7.640;2022-08-19T08:43:18;26.10;85.60
11836;DHT22;5977;51.972;7.640;2022-08-19T08:45:55;26.30;85.40
11836;DHT22;5977;51.972;7.640;2022-08-19T08:48:32;26.40;84.50
11836;DHT22;5977;51.972;7.640;2022-08-19T08:51:03;26.40;84.50
11836;DHT22;5977;51.972;7.640;2022-08-19T08:53:35;26.40;83.80
11836;DHT22;5977;51.972;7.640;2022-08-19T08:56:10;26.40;83.70
11836;DHT22;5977;51.972;7.640;2022-08-19T08:58:51;26.50;84.00
11836;DHT22;5977;51.972;7.640;2022-08-19T09:01:22;26.50;82.80
11836;DHT22;5977;51.972;7.640;2022-08-19T09:03:56;26.40;82.70
11836;DHT22;5977;51.972;7.640;2022-08-19T09:06:36;26.30;83.00
11836;DHT22;5977;51.972;7.640;2022-08-19T09:09:14;26.30;82.40
11836;DHT22;5977;51.972;7.640;2022-08-19T09:11:56;26.20;83.20
11836;DHT22;5977;51.972;7.640;2022-08-19T09:14:34;26.30;83.50
11836;DHT22;5977;51.972;7.640;2022-08-19T09:17:22;26.30;83.00
11836;DHT22;5977;51.972;7.640;2022-08-19T09:20:02;26.30;83.00
11836;DHT22;5977;51.972;7.640;2022-08-19T09:22:36;26.30;83.00
11836;DHT22;5977;51.972;7.640;2022-08-19T09:25:05;26.20;82.90
11836;DHT22;5977;51.972;7.640;2022-08-19T09:27:36;26.10;82.30
11836;DHT22;5977;51.972;7.640;2022-08-19T09:30:22;26.20;82.70
11836;DHT22;5977;51.972;7.640;2022-08-19T09:32:52;26.30;82.20
11836;DHT22;5977;51.972;7.640;2022-08-19T09:35:21;26.30;81.40
11836;DHT22;5977;51.972;7.640;2022-08-19T09:37:50;26.40;81.20
11836;DHT22;5977;51.972;7.640;2022-08-19T09:40:25;26.30;80.70
11836;DHT22;5977;51.972;7.640;2022-08-19T09:42:58;26.40;80.30
11836;DHT22;5977;51.972;7.640;2022-08-19T09:45:39;26.50;80.10
11836;DHT22;5977;51.972;7.640;2022-08-19T09:48:07;26.50;79.00
11836;DHT22;5977;51.972;7.640;2022-08-19T09:50:37;26.30;79.50
11836;DHT22;5977;51.972;7.640;2022-08-19T09:53:17;26.30;78.30
11836;DHT22;5977;51.972;7.640;2022-08-19T09:55:45;26.30;78.80
11836;DHT22;5977;51.972;7.640;2022-08-19T09:58:14;26.30;78.60
11836;DHT22;5977;51.972;7.640;2022-08-19T10:00:42;26.40;78.70
11836;DHT22;5977;51.972;7.640;2022-08-19T10:03:17;26.40;78.10
11836;DHT22;5977;51.972;7.640;2022-08-19T10:05:45;26.50;78.70
11836;DHT22;5977;51.972;7.640;2022-08-19T10:08:18;26.50;78.50
11836;DHT22;5977;51.972;7.640;2022-08-19T10:10:47;26.50;76.70
11836;DHT22;5977;51.972;7.640;2022-08-19T10:13:18;26.50;78.30
11836;DHT22;5977;51.972;7.640;2022-08-19T10:15:52;26.40;74.30
11836;DHT22;5977;51.972;7.640;2022-08-19T10:18:23;26.50;75.50
11836;DHT22;5977;51.972;7.640;2022-08-19T10:20:52;26.50;78.60
11836;DHT22;5977;51.972;7.640;2022-08-19T10:23:28;26.50;78.30
11836;DHT22;5977;51.972;7.640;2022-08-19T10:26:01;26.60;77.30
11836;DHT22;5977;51.972;7.640;2022-08-19T10:28:31;26.80;73.80
11836;DHT22;5977;51.972;7.640;2022-08-19T10:31:03;27.10;76.50
11836;DHT22;5977;51.972;7.640;2022-08-19T10:33:33;27.20;77.40
11836;DHT22;5977;51.972;7.640;2022-08-19T10:36:20;27.30;77.40
11836;DHT22;5977;51.972;7.640;2022-08-19T10:38:51;27.30;74.60
11836;DHT22;5977;51.972;7.640;2022-08-19T10:41:26;27.40;72.20
11836;DHT22;5977;51.972;7.640;2022-08-19T10:43:58;27.40;68.50
11836;DHT22;5977;51.972;7.640;2022-08-19T10:46:30;27.60;72.10
11836;DHT22;5977;51.972;7.640;2022-08-19T10:48:59;27.70;65.50
11836;DHT22;5977;51.972;7.640;2022-08-19T10:51:28;28.10;67.60
11836;DHT22;5977;51.972;7.640;2022-08-19T10:54:15;28.40;64.60
11836;DHT22;5977;51.972;7.640;2022-08-19T10:56:56;28.20;66.10
11836;DHT22;5977;51.972;7.640;2022-08-19T10:59:27;27.90;69.60
11836;DHT22;5977;51.972;7.640;2022-08-19T11:02:03;27.80;70.60
11836;DHT22;5977;51.972;7.640;2022-08-19T11:04:31;27.70;72.70
11836;DHT22;5977;51.972;7.640;2022-08-19T11:07:02;27.40;71.10
11836;DHT22;5977;51.972;7.640;2022-08-19T11:09:30;27.20;71.10
11836;DHT22;5977;51.972;7.640;2022-08-19T11:12:00;27.30;72.50
11836;DHT22;5977;51.972;7.640;2022-08-19T11:14:32;27.40;72.40
11836;DHT22;5977;51.972;7.640;2022-08-19T11:17:01;27.50;72.10
11836;DHT22;5977;51.972;7.640;2022-08-19T11:19:30;27.50;69.90
11836;DHT22;5977;51.972;7.640;2022-08-19T11:21:58;27.50;67.70
11836;DHT22;5977;51.972;7.640;2022-08-19T11:24:29;27.60;69.70
11836;DHT22;5977;51.972;7.640;2022-08-19T11:27:02;27.60;70.30
11836;DHT22;5977;51.972;7.640;2022-08-19T11:29:32;27.60;70.00
11836;DHT22;5977;51.972;7.640;2022-08-19T11:32:04;27.60;69.90
11836;DHT22;5977;51.972;7.640;2022-08-19T11:34:32;27.70;69.40
11836;DHT22;5977;51.972;7.640;2022-08-19T11:37:03;27.60;69.20
11836;DHT22;5977;51.972;7.640;2022-08-19T11:39:33;27.60;69.20
11836;DHT22;5977;51.972;7.640;2022-08-19T11:42:03;27.70;67.40
11836;DHT22;5977;51.972;7.640;2022-08-19T11:44:54;27.70;68.90
11836;DHT22;5977;51.972;7.640;2022-08-19T11:47:22;27.70;69.60
11836;DHT22;5977;51.972;7.640;2022-08-19T11:49:50;27.60;69.90
11836;DHT22;5977;51.972;7.640;2022-08-19T11:52:20;27.60;70.10
11836;DHT22;5977;51.972;7.640;2022-08-19T11:54:47;27.60;70.10
11836;DHT22;5977;51.972;7.640;2022-08-19T11:57:15;27.60;68.10
11836;DHT22;5977;51.972;7.640;2022-08-19T11:59:48;27.60;68.90
11836;DHT22;5977;51.972;7.640;2022-08-19T12:02:18;27.60;67.10
11836;DHT22;5977;51.972;7.640;2022-08-19T12:04:46;27.70;66.80
11836;DHT22;5977;51.972;7.640;2022-08-19T12:07:14;27.70;66.10
11836;DHT22;5977;51.972;7.640;2022-08-19T12:09:42;27.70;66.60
11836;DHT22;5977;51.972;7.640;2022-08-19T12:12:11;27.70;67.80
11836;DHT22;5977;51.972;7.640;2022-08-19T12:14:39;27.60;66.40
11836;DHT22;5977;51.972;7.640;2022-08-19T12:17:07;27.60;66.90
11836;DHT22;5977;51.972;7.640;2022-08-19T12:19:37;27.60;67.90
11836;DHT22;5977;51.972;7.640;2022-08-19T12:22:06;27.60;67.90
11836;DHT22;5977;51.972;7.640;2022-08-19T12:24:34;27.60;68.10
11836;DHT22;5977;51.972;7.640;2022-08-19T12:27:02;27.60;68.70
11836;DHT22;5977;51.972;7.640;2022-08-19T12:29:30;27.50;69.40
11836;DHT22;5977;51.972;7.640;2022-08-19T12:31:58;27.50;68.90
11836;DHT22;5977;51.972;7.640;2022-08-19T12:34:29;27.60;68.80
11836;DHT22;5977;51.972;7.640;2022-08-19T12:37:02;27.50;67.70
11836;DHT22;5977;51.972;7.640;2022-08-19T12:39:34;27.50;68.20
11836;DHT22;5977;51.972;7.640;2022-08-19T12:42:03;27.60;68.50
11836;DHT22;5977;51.972;7.640;2022-08-19T12:44:32;27.60;68.50
11836;DHT22;5977;51.972;7.640;2022-08-19T12:47:00;27.60;67.90
11836;DHT22;5977;51.972;7.640;2022-08-19T12:49:33;27.60;68.10
11836;DHT22;5977;51.972;7.640;2022-08-19T12:52:23;27.60;65.70
11836;DHT22;5977;51.972;7.640;2022-08-19T12:54:51;27.60;67.30
11836;DHT22;5977;51.972;7.640;2022-08-19T12:57:20;27.60;66.80
11836;DHT22;5977;51.972;7.640;2022-08-19T12:59:55;27.60;67.70
11836;DHT22;5977;51.972;7.640;2022-08-19T13:02:23;27.60;69.20
11836;DHT22;5977;51.972;7.640;2022-08-19T13:04:51;27.60;68.90
11836;DHT22;5977;51.972;7.640;2022-08-19T13:07:18;27.60;67.50
11836;DHT22;5977;51.972;7.640;2022-08-19T13:09:51;27.60;64.40
11836;DHT22;5977;51.972;7.640;2022-08-19T13:12:19;27.50;66.90
11836;DHT22;5977;51.972;7.640;2022-08-19T13:14:50;27.60;63.50
11836;DHT22;5977;51.972;7.640;2022-08-19T13:17:19;27.60;64.30
11836;DHT22;5977;51.972;7.640;2022-08-19T13:19:47;27.70;59.60
11836;DHT22;5977;51.972;7.640;2022-08-19T13:22:15;27.70;61.30
11836;DHT22;5977;51.972;7.640;2022-08-19T13:24:42;27.70;59.80
11836;DHT22;5977;51.972;7.640;2022-08-19T13:27:14;27.70;57.60
11836;DHT22;5977;51.972;7.640;2022-08-19T13:29:42;27.60;58.00
11836;DHT22;5977;51.972;7.640;2022-08-19T13:32:28;27.50;58.60
11836;DHT22;5977;51.972;7.640;2022-08-19T13:35:15;27.60;59.70
11836;DHT22;5977;51.972;7.640;2022-08-19T13:37:43;27.70;60.30
11836;DHT22;5977;51.972;7.640;2022-08-19T13:40:14;27.60;58.90
11836;DHT22;5977;51.972;7.640;2022-08-19T13:42:48;27.60;60.40
11836;DHT22;5977;51.972;7.640;2022-08-19T13:45:18;27.60;58.20
11836;DHT22;5977;51.972;7.640;2022-08-19T13:47:47;27.70;60.00
11836;DHT22;5977;51.972;7.640;2022-08-19T13:50:23;27.70;59.00
11836;DHT22;5977;51.972;7.640;2022-08-19T13:52:51;27.80;58.60
11836;DHT22;5977;51.972;7.640;2022-08-19T13:55:20;27.80;57.50
11836;DHT22;5977;51.972;7.640;2022-08-19T13:57:59;27.90;59.90
11836;DHT22;5977;51.972;7.640;2022-08-19T14:00:48;27.90;58.40
11836;DHT22;5977;51.972;7.640;2022-08-19T14:03:16;28.00;57.70
11836;DHT22;5977;51.972;7.640;2022-08-19T14:05:44;28.00;57.60
11836;DHT22;5977;51.972;7.640;2022-08-19T14:08:13;28.00;57.30
11836;DHT22;5977;51.972;7.640;2022-08-19T14:10:42;28.00;57.60
11836;DHT22;5977;51.972;7.640;2022-08-19T14:13:14;28.00;57.50
11836;DHT22;5977;51.972;7.640;2022-08-19T14:15:44;28.00;57.40
11836;DHT22;5977;51.972;7.640;2022-08-19T14:18:12;28.00;57.60
11836;DHT22;5977;51.972;7.640;2022-08-19T14:20:41;28.00;59.10
11836;DHT22;5977;51.972;7.640;2022-08-19T14:23:09;28.00;61.40
11836;DHT22;5977;51.972;7.640;2022-08-19T14:25:38;27.90;59.40
11836;DHT22;5977;51.972;7.640;2022-08-19T14:28:06;28.00;58.30
11836;DHT22;5977;51.972;7.640;2022-08-19T14:30:37;27.90;58.80
11836;DHT22;5977;51.972;7.640;2022-08-19T14:33:05;27.90;59.10
11836;DHT22;5977;51.972;7.640;2022-08-19T14:35:37;28.00;60.60
11836;DHT22;5977;51.972;7.640;2022-08-19T14:38:06;27.90;61.30
11836;DHT22;5977;51.972;7.640;2022-08-19T14:40:34;28.00;60.50
11836;DHT22;5977;51.972;7.640;2022-08-19T14:43:03;28.00;62.30
11836;DHT22;5977;51.972;7.640;2022-08-19T14:45:33;28.00;60.60
11836;DHT22;5977;51.972;7.640;2022-08-19T14:48:04;27.90;58.80
11836;DHT22;5977;51.972;7.640;2022-08-19T14:50:33;27.90;61.10
11836;DHT22;5977;51.972;7.640;2022-08-19T14:53:05;28.00;60.80
11836;DHT22;5977;51.972;7.640;2022-08-19T14:55:41;27.90;59.00
11836;DHT22;5977;51.972;7.640;2022-08-19T14:58:09;27.90;58.70
11836;DHT22;5977;51.972;7.640;2022-08-19T15:00:56;28.00;60.20
11836;DHT22;5977;51.972;7.640;2022-08-19T15:03:25;28.00;58.70
11836;DHT22;5977;51.972;7.640;2022-08-19T15:05:54;27.80;59.90
11836;DHT22;5977;51.972;7.640;2022-08-19T15:08:25;27.80;60.60
11836;DHT22;5977;51.972;7.640;2022-08-19T15:10:53;27.60;59.20
11836;DHT22;5977;51.972;7.640;2022-08-19T15:13:21;27.60;59.20
11836;DHT22;5977;51.972;7.640;2022-08-19T15:15:51;27.70;60.20
11836;DHT22;5977;51.972;7.640;2022-08-19T15:18:19;27.60;61.80
11836;DHT22;5977;51.972;7.640;2022-08-19T15:20:50;27.60;65.30
11836;DHT22;5977;51.972;7.640;2022-08-19T15:23:19;27.50;61.80
11836;DHT22;5977;51.972;7.640;2022-08-19T15:25:48;27.50;60.10
11836;DHT22;5977;51.972;7.640;2022-08-19T15:28:23;27.50;59.60
11836;DHT22;5977;51.972;7.640;2022-08-19T15:30:51;27.40;60.50
11836;DHT22;5977;51.972;7.640;2022-08-19T15:33:19;27.40;60.90
11836;DHT22;5977;51.972;7.640;2022-08-19T15:35:49;27.30;61.70
11836;DHT22;5977;51.972;7.640;2022-08-19T15:38:18;27.30;62.00
11836;DHT22;5977;51.972;7.640;2022-08-19T15:40:48;27.30;62.50
11836;DHT22;5977;51.972;7.640;2022-08-19T15:43:17;27.30;62.20
11836;DHT22;5977;51.972;7.640;2022-08-19T15:45:47;27.30;62.20
11836;DHT22;5977;51.972;7.640;2022-08-19T15:48:15;27.30;61.50
11836;DHT22;5977;51.972;7.640;2022-08-19T15:50:43;27.20;60.00
11836;DHT22;5977;51.972;7.640;2022-08-19T15:53:12;27.20;60.70
11836;DHT22;5977;51.972;7.640;2022-08-19T15:55:42;27.20;61.10
11836;DHT22;5977;51.972;7.640;2022-08-19T15:58:12;27.20;60.40
11836;DHT22;5977;51.972;7.640;2022-08-19T16:01:00;27.10;61.40
11836;DHT22;5977;51.972;7.640;2022-08-19T16:03:47;27.10;62.10
11836;DHT22;5977;51.972;7.640;2022-08-19T16:06:43;27.10;62.40
11836;DHT22;5977;51.972;7.640;2022-08-19T16:09:13;27.10;62.80
11836;DHT22;5977;51.972;7.640;2022-08-19T16:11:42;27.20;62.50